Terminal Aerodrome Forecast
Issued by NWS

Home | Current Version | Previous Version | Text Only | Print | Product List | Glossary On
Versions: 1 2 3 4 5 6 7 8 9 10 11 12 13 14 15
000
FTUS45 KRIW 262328
TAFCPR
TAF
KCPR 262328Z 2700/2724 35012G18KT P6SM VCSH SCT070 BKN100
     FM270200 33011G17KT P6SM VCTS SCT060CB BKN090
     FM270500 29011KT P6SM VCSH BKN070
     FM271900 31010KT P6SM SCT080 SCT120=

USA.gov is the U.S. government's official web portal to all federal, state and local government web resources and services.